CPA042 VABB-VHHH
Flight info
| Callsign | CPA042 |
|---|---|
| Flight time | N/A |
| Altitude | 37000 |
| Route | ANOLI2A AAU G450 NNP Z14 OGUNA W160 JRS J46 CEA B465 CTG A599 LINSO/K0902S1130 A599 MAKUL/K0891S1190 A599 GULOT W146 XSJ W148 LXI A599 POU R473 SIERA |
| Aircraft | A346/H-SDE2E3FGHIJ3J4J5M1RWXY/LB1D1 |
Departure
| Time | 2026-05-07 05:39 |
|---|---|
| Airport | Chhatrapati Shivaji Maharaj International Airport (VABB) |
Arrival
| Time | N/A |
|---|---|
| Airport | Hong Kong International Airport (VHHH) |
| Time | Latitude | Longitude | Altitude | Speed | Heading |
|---|---|---|---|---|---|
| 2026-05-07 05:25 | 19.09482 | 72.87064 | 49 ft | 0 kts | 140° |
| 2026-05-07 05:31 | 19.09487 | 72.87059 | 49 ft | 4 kts | 140° |
| 2026-05-07 05:31 | 19.09506 | 72.87041 | 49 ft | 2 kts | 139° |
| 2026-05-07 05:31 | 19.09524 | 72.87029 | 49 ft | 4 kts | 161° |
| 2026-05-07 05:31 | 19.09540 | 72.87027 | 49 ft | 4 kts | 201° |
| 2026-05-07 05:32 | 19.09558 | 72.87041 | 49 ft | 4 kts | 227° |
| 2026-05-07 05:32 | 19.09576 | 72.87061 | 49 ft | 3 kts | 226° |
| 2026-05-07 05:32 | 19.09578 | 72.87063 | 49 ft | 0 kts | 226° |
| 2026-05-07 05:34 | 19.09571 | 72.87056 | 49 ft | 3 kts | 226° |
| 2026-05-07 05:34 | 19.09546 | 72.87028 | 49 ft | 7 kts | 227° |
| 2026-05-07 05:35 | 19.09506 | 72.86980 | 53 ft | 10 kts | 228° |
| 2026-05-07 05:35 | 19.09454 | 72.86918 | 49 ft | 12 kts | 228° |
| 2026-05-07 05:35 | 19.09376 | 72.86885 | 51 ft | 14 kts | 162° |
| 2026-05-07 05:35 | 19.09295 | 72.86951 | 54 ft | 16 kts | 135° |
| 2026-05-07 05:36 | 19.09236 | 72.87051 | 54 ft | 18 kts | 97° |
| 2026-05-07 05:36 | 19.09234 | 72.87190 | 58 ft | 20 kts | 95° |
| 2026-05-07 05:36 | 19.09131 | 72.87265 | 51 ft | 21 kts | 178° |
| 2026-05-07 05:36 | 19.09052 | 72.87361 | 52 ft | 21 kts | 94° |
| 2026-05-07 05:37 | 19.09054 | 72.87521 | 52 ft | 23 kts | 89° |
| 2026-05-07 05:37 | 19.09056 | 72.87694 | 51 ft | 24 kts | 89° |
| 2026-05-07 05:37 | 19.09059 | 72.87880 | 57 ft | 26 kts | 89° |
| 2026-05-07 05:37 | 19.09051 | 72.88027 | 57 ft | 14 kts | 126° |
| 2026-05-07 05:38 | 19.08952 | 72.88056 | 48 ft | 17 kts | 180° |
| 2026-05-07 05:38 | 19.08888 | 72.88016 | 49 ft | 11 kts | 256° |
| 2026-05-07 05:38 | 19.08886 | 72.87985 | 50 ft | 0 kts | 270° |
| 2026-05-07 05:38 | 19.08885 | 72.87835 | 51 ft | 51 kts | 269° |
| 2026-05-07 05:39 | 19.08878 | 72.87236 | 59 ft | 109 kts | 269° |
| 2026-05-07 05:39 | 19.08865 | 72.86241 | 54 ft | 159 kts | 269° |
| 2026-05-07 05:39 | 19.08831 | 72.84982 | 273 ft | 181 kts | 269° |
| 2026-05-07 05:39 | 19.08808 | 72.83632 | 852 ft | 181 kts | 269° |
| 2026-05-07 05:40 | 19.08794 | 72.82324 | 1655 ft | 175 kts | 270° |
| 2026-05-07 05:40 | 19.08778 | 72.81036 | 2155 ft | 179 kts | 271° |
| 2026-05-07 05:40 | 19.08762 | 72.79657 | 2423 ft | 194 kts | 271° |
| 2026-05-07 05:40 | 19.08746 | 72.78174 | 2711 ft | 208 kts | 271° |
| 2026-05-07 05:41 | 19.08730 | 72.76583 | 2995 ft | 223 kts | 272° |
| 2026-05-07 05:41 | 19.08722 | 72.74876 | 3256 ft | 240 kts | 276° |
| 2026-05-07 05:41 | 19.09218 | 72.73162 | 3539 ft | 252 kts | 306° |
| 2026-05-07 05:41 | 19.10523 | 72.71918 | 3861 ft | 264 kts | 336° |
| 2026-05-07 05:42 | 19.12322 | 72.71541 | 4397 ft | 268 kts | 6° |
| 2026-05-07 05:42 | 19.14073 | 72.72206 | 5009 ft | 272 kts | 36° |
| 2026-05-07 05:42 | 19.15497 | 72.73538 | 5669 ft | 274 kts | 38° |
| 2026-05-07 05:42 | 19.17204 | 72.74436 | 6258 ft | 280 kts | 9° |
| 2026-05-07 05:43 | 19.19165 | 72.74483 | 6872 ft | 284 kts | 359° |
| 2026-05-07 05:43 | 19.21159 | 72.74409 | 7481 ft | 289 kts | 358° |
| 2026-05-07 05:43 | 19.23189 | 72.74319 | 8107 ft | 294 kts | 358° |
| 2026-05-07 05:43 | 19.25218 | 72.74216 | 8782 ft | 298 kts | 358° |
| 2026-05-07 05:44 | 19.27301 | 72.74104 | 9419 ft | 302 kts | 358° |
| 2026-05-07 05:44 | 19.29403 | 72.74214 | 9755 ft | 303 kts | 15° |
| 2026-05-07 05:44 | 19.31350 | 72.75088 | 9977 ft | 309 kts | 36° |
| 2026-05-07 05:44 | 19.33044 | 72.76565 | 10364 ft | 322 kts | 43° |
| 2026-05-07 05:45 | 19.34754 | 72.78199 | 10654 ft | 339 kts | 43° |
| 2026-05-07 05:45 | 19.36549 | 72.79916 | 10953 ft | 356 kts | 43° |
| 2026-05-07 05:45 | 19.38423 | 72.81688 | 11244 ft | 373 kts | 43° |
| 2026-05-07 05:45 | 19.40411 | 72.83552 | 11551 ft | 389 kts | 42° |
| 2026-05-07 05:46 | 19.42469 | 72.85474 | 12119 ft | 396 kts | 42° |
| 2026-05-07 05:46 | 19.44489 | 72.87480 | 12834 ft | 399 kts | 49° |
| 2026-05-07 05:46 | 19.46061 | 72.89906 | 13560 ft | 400 kts | 64° |
| 2026-05-07 05:46 | 19.47040 | 72.92675 | 14219 ft | 402 kts | 77° |
| 2026-05-07 05:47 | 19.47655 | 72.95586 | 14861 ft | 405 kts | 79° |
| 2026-05-07 05:47 | 19.48229 | 72.98538 | 15427 ft | 411 kts | 79° |
| 2026-05-07 05:47 | 19.48815 | 73.01525 | 15981 ft | 416 kts | 78° |
| 2026-05-07 05:47 | 19.49414 | 73.04510 | 16588 ft | 420 kts | 78° |
| 2026-05-07 05:48 | 19.50037 | 73.07561 | 17167 ft | 424 kts | 77° |
| 2026-05-07 05:48 | 19.50684 | 73.10634 | 17766 ft | 428 kts | 76° |
| 2026-05-07 05:48 | 19.51341 | 73.13730 | 18312 ft | 431 kts | 76° |
| 2026-05-07 05:48 | 19.52004 | 73.16850 | 18784 ft | 435 kts | 76° |
| 2026-05-07 05:49 | 19.52672 | 73.19998 | 19232 ft | 439 kts | 76° |
| 2026-05-07 05:49 | 19.53345 | 73.23179 | 19662 ft | 443 kts | 75° |
| 2026-05-07 05:49 | 19.54024 | 73.26392 | 20067 ft | 447 kts | 75° |
| 2026-05-07 05:49 | 19.54707 | 73.29628 | 20471 ft | 451 kts | 75° |
| 2026-05-07 05:50 | 19.55388 | 73.32856 | 20864 ft | 455 kts | 75° |
| 2026-05-07 05:50 | 19.55995 | 73.36178 | 21237 ft | 460 kts | 78° |
| 2026-05-07 05:50 | 19.56303 | 73.38427 | 21508 ft | 464 kts | 80° |
| 2026-05-07 05:50 | 19.56780 | 73.43018 | 21985 ft | 469 kts | 81° |
| 2026-05-07 05:51 | 19.57003 | 73.45305 | 22216 ft | 472 kts | 81° |
| 2026-05-07 05:51 | 19.57342 | 73.48785 | 22541 ft | 476 kts | 81° |
| 2026-05-07 05:51 | 19.57686 | 73.52304 | 22871 ft | 479 kts | 81° |
| 2026-05-07 05:51 | 19.58033 | 73.55840 | 23198 ft | 483 kts | 81° |
| 2026-05-07 05:52 | 19.58383 | 73.59402 | 23491 ft | 486 kts | 80° |
| 2026-05-07 05:52 | 19.58737 | 73.62989 | 23746 ft | 489 kts | 80° |
| 2026-05-07 05:52 | 19.59299 | 73.66504 | 24075 ft | 487 kts | 73° |
| 2026-05-07 05:52 | 19.60268 | 73.69950 | 24290 ft | 486 kts | 65° |
| 2026-05-07 05:53 | 19.61635 | 73.73236 | 24510 ft | 485 kts | 59° |
| 2026-05-07 05:53 | 19.63219 | 73.76418 | 24784 ft | 486 kts | 57° |
| 2026-05-07 05:53 | 19.64845 | 73.79579 | 25028 ft | 489 kts | 57° |
| 2026-05-07 05:53 | 19.66483 | 73.82761 | 25275 ft | 491 kts | 57° |
| 2026-05-07 05:54 | 19.68100 | 73.85925 | 25553 ft | 493 kts | 58° |
| 2026-05-07 05:54 | 19.69738 | 73.89150 | 25839 ft | 496 kts | 58° |
| 2026-05-07 05:54 | 19.71373 | 73.92391 | 26101 ft | 498 kts | 58° |
| 2026-05-07 05:54 | 19.73012 | 73.95646 | 26372 ft | 500 kts | 58° |
| 2026-05-07 05:55 | 19.74641 | 73.98918 | 26645 ft | 503 kts | 59° |
| 2026-05-07 05:55 | 19.76155 | 74.02288 | 26869 ft | 508 kts | 62° |
| 2026-05-07 05:55 | 19.77518 | 74.05776 | 27076 ft | 512 kts | 65° |
| 2026-05-07 05:55 | 19.78788 | 74.09279 | 27312 ft | 515 kts | 66° |
| 2026-05-07 05:56 | 19.80067 | 74.12858 | 27577 ft | 517 kts | 66° |
| 2026-05-07 05:56 | 19.81342 | 74.16440 | 27840 ft | 519 kts | 66° |
| 2026-05-07 05:56 | 19.82629 | 74.20049 | 28100 ft | 521 kts | 66° |
| 2026-05-07 05:56 | 19.83922 | 74.23667 | 28394 ft | 522 kts | 66° |
| 2026-05-07 05:57 | 19.85211 | 74.27273 | 28775 ft | 521 kts | 66° |
| 2026-05-07 05:57 | 19.86500 | 74.30875 | 29182 ft | 520 kts | 66° |
| 2026-05-07 05:57 | 19.87771 | 74.34428 | 29563 ft | 519 kts | 66° |
| 2026-05-07 05:57 | 19.89056 | 74.38019 | 29922 ft | 518 kts | 66° |
| 2026-05-07 05:58 | 19.90341 | 74.41611 | 30193 ft | 519 kts | 66° |
| 2026-05-07 05:58 | 19.91626 | 74.45209 | 30468 ft | 520 kts | 66° |
| 2026-05-07 05:58 | 19.92912 | 74.48811 | 30754 ft | 519 kts | 67° |
| 2026-05-07 05:58 | 19.94195 | 74.52408 | 31060 ft | 519 kts | 67° |
| 2026-05-07 05:59 | 19.95476 | 74.56003 | 31362 ft | 518 kts | 67° |
| 2026-05-07 05:59 | 19.96728 | 74.59553 | 31661 ft | 519 kts | 69° |
| 2026-05-07 05:59 | 19.97772 | 74.63244 | 31957 ft | 520 kts | 74° |
| 2026-05-07 05:59 | 19.98491 | 74.67031 | 32264 ft | 521 kts | 80° |
| 2026-05-07 06:00 | 19.98869 | 74.70865 | 32562 ft | 521 kts | 86° |
| 2026-05-07 06:00 | 19.98905 | 74.74742 | 32872 ft | 521 kts | 92° |
| 2026-05-07 06:00 | 19.98598 | 74.78589 | 33183 ft | 521 kts | 98° |
| 2026-05-07 06:00 | 19.97970 | 74.82380 | 33504 ft | 520 kts | 102° |
| 2026-05-07 06:01 | 19.97222 | 74.86095 | 33833 ft | 519 kts | 103° |
| 2026-05-07 06:01 | 19.96438 | 74.89846 | 34119 ft | 518 kts | 103° |
| 2026-05-07 06:01 | 19.95654 | 74.93598 | 34408 ft | 517 kts | 103° |
| 2026-05-07 06:01 | 19.94881 | 74.97342 | 34703 ft | 516 kts | 103° |
| 2026-05-07 06:02 | 19.94118 | 75.01073 | 35012 ft | 514 kts | 103° |
| 2026-05-07 06:02 | 19.93370 | 75.04756 | 35296 ft | 513 kts | 102° |
| 2026-05-07 06:02 | 19.92618 | 75.08473 | 35545 ft | 513 kts | 102° |
| 2026-05-07 06:02 | 19.91864 | 75.12201 | 35744 ft | 514 kts | 102° |
| 2026-05-07 06:03 | 19.91110 | 75.15928 | 35923 ft | 515 kts | 102° |
| 2026-05-07 06:03 | 19.90353 | 75.19663 | 36121 ft | 516 kts | 102° |
| 2026-05-07 06:03 | 19.89593 | 75.23405 | 36334 ft | 516 kts | 102° |
| 2026-05-07 06:03 | 19.88843 | 75.27093 | 36542 ft | 517 kts | 102° |
| 2026-05-07 06:04 | 19.88130 | 75.30853 | 36768 ft | 517 kts | 99° |
| 2026-05-07 06:04 | 19.87705 | 75.34653 | 36898 ft | 518 kts | 94° |
| 2026-05-07 06:04 | 19.87615 | 75.38481 | 36900 ft | 517 kts | 88° |
| 2026-05-07 06:05 | 19.88460 | 75.46060 | 36909 ft | 516 kts | 76° |
| 2026-05-07 06:05 | 19.90589 | 75.53357 | 36912 ft | 515 kts | 67° |
| 2026-05-07 06:06 | 19.93175 | 75.60418 | 36907 ft | 515 kts | 67° |
| 2026-05-07 06:06 | 19.95783 | 75.67532 | 36908 ft | 515 kts | 67° |
| 2026-05-07 06:07 | 19.98373 | 75.74673 | 36909 ft | 515 kts | 67° |
| 2026-05-07 06:07 | 20.00927 | 75.81757 | 36905 ft | 516 kts | 67° |
| 2026-05-07 06:08 | 20.03498 | 75.88904 | 36902 ft | 516 kts | 67° |
| 2026-05-07 06:08 | 20.06067 | 75.96054 | 36899 ft | 516 kts | 67° |
| 2026-05-07 06:09 | 20.08628 | 76.03196 | 36901 ft | 516 kts | 67° |
| 2026-05-07 06:09 | 20.11177 | 76.10315 | 36897 ft | 516 kts | 67° |
| 2026-05-07 06:10 | 20.13741 | 76.17486 | 36897 ft | 517 kts | 67° |
| 2026-05-07 06:10 | 20.16302 | 76.24659 | 36895 ft | 517 kts | 67° |
| 2026-05-07 06:11 | 20.18845 | 76.31789 | 36897 ft | 517 kts | 67° |
| 2026-05-07 06:11 | 20.21401 | 76.38968 | 36887 ft | 517 kts | 67° |
| 2026-05-07 06:12 | 20.23952 | 76.46143 | 36886 ft | 517 kts | 67° |
| 2026-05-07 06:12 | 20.26500 | 76.53322 | 36885 ft | 517 kts | 67° |
| 2026-05-07 06:13 | 20.29034 | 76.60469 | 36897 ft | 518 kts | 67° |
| 2026-05-07 06:13 | 20.31589 | 76.67683 | 36883 ft | 520 kts | 67° |
| 2026-05-07 06:14 | 20.34150 | 76.74923 | 36880 ft | 521 kts | 67° |
| 2026-05-07 06:14 | 20.36705 | 76.82171 | 36878 ft | 521 kts | 68° |
| 2026-05-07 06:15 | 20.38993 | 76.89478 | 36876 ft | 522 kts | 70° |
| 2026-05-07 06:15 | 20.41224 | 76.96892 | 36879 ft | 523 kts | 70° |
| 2026-05-07 06:16 | 20.43454 | 77.04294 | 36877 ft | 523 kts | 70° |
| 2026-05-07 06:16 | 20.45675 | 77.11660 | 36878 ft | 523 kts | 70° |
| 2026-05-07 06:17 | 20.47906 | 77.19062 | 36879 ft | 523 kts | 70° |
| 2026-05-07 06:17 | 20.50140 | 77.26487 | 36888 ft | 524 kts | 70° |
| 2026-05-07 06:18 | 20.52356 | 77.33861 | 36887 ft | 524 kts | 70° |
| 2026-05-07 06:18 | 20.54585 | 77.41299 | 36889 ft | 524 kts | 70° |
| 2026-05-07 06:19 | 20.56946 | 77.48667 | 36888 ft | 524 kts | 68° |
| 2026-05-07 06:19 | 20.59383 | 77.56008 | 36892 ft | 524 kts | 68° |
| 2026-05-07 06:20 | 20.61803 | 77.63359 | 36894 ft | 524 kts | 69° |
| 2026-05-07 06:20 | 20.64198 | 77.70683 | 36895 ft | 525 kts | 69° |
| 2026-05-07 06:21 | 20.66611 | 77.78078 | 36894 ft | 525 kts | 69° |
| 2026-05-07 06:21 | 20.69002 | 77.85421 | 36894 ft | 525 kts | 69° |
| 2026-05-07 06:22 | 20.71428 | 77.92798 | 36910 ft | 525 kts | 69° |
| 2026-05-07 06:22 | 20.75084 | 78.03883 | 36898 ft | 527 kts | 68° |
| 2026-05-07 06:23 | 20.77504 | 78.11240 | 36905 ft | 527 kts | 69° |
| 2026-05-07 06:23 | 20.79941 | 78.18663 | 36893 ft | 527 kts | 69° |
| 2026-05-07 06:24 | 20.82375 | 78.26090 | 36891 ft | 528 kts | 69° |
| 2026-05-07 06:24 | 20.84808 | 78.33525 | 36904 ft | 527 kts | 69° |
| 2026-05-07 06:25 | 20.87216 | 78.40895 | 36892 ft | 527 kts | 69° |
| 2026-05-07 06:25 | 20.89636 | 78.48315 | 36892 ft | 527 kts | 69° |
| 2026-05-07 06:26 | 20.92053 | 78.55737 | 36893 ft | 527 kts | 69° |
| 2026-05-07 06:26 | 20.94473 | 78.63181 | 36893 ft | 527 kts | 69° |
| 2026-05-07 06:27 | 20.96867 | 78.70559 | 36889 ft | 528 kts | 69° |
| 2026-05-07 06:27 | 20.99282 | 78.78011 | 36892 ft | 529 kts | 69° |
| 2026-05-07 06:28 | 21.01699 | 78.85480 | 36891 ft | 529 kts | 69° |
| 2026-05-07 06:28 | 21.04095 | 78.92892 | 36891 ft | 529 kts | 69° |
| 2026-05-07 06:29 | 21.06503 | 79.00357 | 36892 ft | 529 kts | 69° |
| 2026-05-07 06:29 | 21.08502 | 79.07978 | 36892 ft | 531 kts | 76° |
| 2026-05-07 06:30 | 21.09802 | 79.15766 | 36907 ft | 534 kts | 79° |
| 2026-05-07 06:30 | 21.10984 | 79.23647 | 36898 ft | 534 kts | 79° |
| 2026-05-07 06:31 | 21.14936 | 79.49744 | 36899 ft | 536 kts | 79° |
| 2026-05-07 06:31 | 21.19907 | 79.82758 | 36895 ft | 538 kts | 79° |
| 2026-05-07 06:32 | 21.24624 | 80.14514 | 36900 ft | 538 kts | 80° |
| 2026-05-07 06:32 | 21.29315 | 80.46499 | 36903 ft | 540 kts | 80° |
| 2026-05-07 06:33 | 21.33911 | 80.78578 | 36899 ft | 541 kts | 83° |
| 2026-05-07 06:33 | 21.38508 | 81.27392 | 36895 ft | 542 kts | 84° |
| 2026-05-07 06:34 | 21.43243 | 81.79228 | 36894 ft | 541 kts | 85° |
| 2026-05-07 06:34 | 21.46688 | 82.31497 | 36877 ft | 541 kts | 88° |
| 2026-05-07 06:35 | 21.53175 | 82.82628 | 36878 ft | 541 kts | 70° |
| 2026-05-07 06:35 | 21.68562 | 83.31514 | 36909 ft | 544 kts | 71° |
| 2026-05-07 06:36 | 21.83756 | 83.80642 | 36894 ft | 546 kts | 71° |
| 2026-05-07 06:36 | 21.96230 | 84.32082 | 36889 ft | 546 kts | 80° |
| 2026-05-07 06:37 | 22.05450 | 84.84282 | 36900 ft | 547 kts | 80° |
| 2026-05-07 06:37 | 22.14528 | 85.36659 | 36951 ft | 548 kts | 80° |
| 2026-05-07 06:38 | 22.21880 | 85.79839 | 36945 ft | 548 kts | 81° |
| 2026-05-07 06:38 | 22.30773 | 86.31604 | 36935 ft | 548 kts | 79° |
| 2026-05-07 06:39 | 22.40079 | 86.83754 | 36892 ft | 549 kts | 80° |
| 2026-05-07 06:39 | 22.49138 | 87.35582 | 36883 ft | 552 kts | 81° |
| 2026-05-07 06:40 | 22.58257 | 87.88797 | 36883 ft | 550 kts | 81° |
| 2026-05-07 06:40 | 22.66625 | 88.41455 | 36885 ft | 547 kts | 89° |
| 2026-05-07 06:41 | 22.63729 | 88.68479 | 36888 ft | 538 kts | 104° |
| 2026-05-07 06:41 | 22.59444 | 88.94071 | 36890 ft | 539 kts | 102° |
| 2026-05-07 06:41 | 22.54161 | 89.41602 | 36889 ft | 539 kts | 100° |
| 2026-05-07 06:42 | 22.50488 | 89.74083 | 36889 ft | 539 kts | 101° |
| 2026-05-07 06:42 | 22.46761 | 90.06446 | 36887 ft | 538 kts | 101° |
| 2026-05-07 06:43 | 22.43007 | 90.38480 | 36883 ft | 536 kts | 101° |
| 2026-05-07 06:43 | 22.39167 | 90.70690 | 36892 ft | 535 kts | 101° |
| 2026-05-07 06:44 | 22.35269 | 91.02827 | 36898 ft | 535 kts | 101° |
| 2026-05-07 06:44 | 22.31339 | 91.34706 | 36893 ft | 535 kts | 101° |
| 2026-05-07 06:45 | 22.27605 | 91.67019 | 36903 ft | 535 kts | 100° |
| 2026-05-07 06:45 | 22.26913 | 91.83244 | 36907 ft | 540 kts | 86° |
| 2026-05-07 06:45 | 22.30217 | 91.99246 | 36880 ft | 541 kts | 73° |
| 2026-05-07 06:46 | 22.38914 | 92.30299 | 36883 ft | 540 kts | 73° |
| 2026-05-07 06:46 | 22.47495 | 92.61647 | 36908 ft | 542 kts | 73° |
| 2026-05-07 06:47 | 22.56077 | 92.93250 | 36939 ft | 539 kts | 74° |
| 2026-05-07 06:47 | 22.64513 | 93.24595 | 36989 ft | 539 kts | 73° |
| 2026-05-07 06:48 | 22.72918 | 93.56076 | 36946 ft | 537 kts | 74° |
| 2026-05-07 06:48 | 22.81294 | 93.87720 | 36927 ft | 540 kts | 74° |
| 2026-05-07 06:49 | 22.90873 | 94.24251 | 36885 ft | 540 kts | 74° |
| 2026-05-07 06:49 | 23.02338 | 94.68485 | 36877 ft | 541 kts | 74° |
| 2026-05-07 06:50 | 23.10452 | 95.00116 | 36886 ft | 542 kts | 74° |
| 2026-05-07 06:50 | 23.18516 | 95.31832 | 36878 ft | 542 kts | 74° |
| 2026-05-07 06:51 | 23.26535 | 95.63670 | 36867 ft | 540 kts | 74° |
| 2026-05-07 06:51 | 23.35114 | 95.98050 | 36864 ft | 540 kts | 75° |
| 2026-05-07 06:52 | 23.43796 | 96.33218 | 36858 ft | 539 kts | 75° |
| 2026-05-07 06:52 | 23.52792 | 96.70034 | 36871 ft | 537 kts | 75° |
| 2026-05-07 06:53 | 23.60445 | 97.01680 | 36897 ft | 537 kts | 75° |
| 2026-05-07 06:53 | 23.68063 | 97.33487 | 36918 ft | 538 kts | 75° |
| 2026-05-07 06:54 | 23.75551 | 97.65059 | 36925 ft | 537 kts | 75° |
| 2026-05-07 06:54 | 23.83054 | 97.96997 | 36931 ft | 536 kts | 75° |
| 2026-05-07 06:55 | 23.90495 | 98.28989 | 36927 ft | 539 kts | 75° |
| 2026-05-07 06:55 | 23.97851 | 98.60946 | 36942 ft | 539 kts | 75° |
| 2026-05-07 06:56 | 24.05150 | 98.92976 | 36942 ft | 537 kts | 76° |
| 2026-05-07 06:56 | 24.12390 | 99.25065 | 36934 ft | 539 kts | 76° |
| 2026-05-07 06:57 | 24.19575 | 99.57264 | 36944 ft | 539 kts | 76° |
| 2026-05-07 06:57 | 24.26700 | 99.89525 | 36957 ft | 537 kts | 76° |
| 2026-05-07 06:58 | 24.33695 | 100.21534 | 36948 ft | 538 kts | 76° |
| 2026-05-07 06:58 | 24.40692 | 100.53902 | 36956 ft | 538 kts | 76° |
| 2026-05-07 06:59 | 24.47563 | 100.86043 | 36964 ft | 537 kts | 76° |
| 2026-05-07 06:59 | 24.54411 | 101.18428 | 36956 ft | 536 kts | 76° |
| 2026-05-07 07:00 | 24.61182 | 101.50823 | 36931 ft | 538 kts | 77° |
| 2026-05-07 07:00 | 24.62961 | 101.67609 | 36927 ft | 538 kts | 88° |
| 2026-05-07 07:00 | 24.63674 | 101.84222 | 36923 ft | 537 kts | 87° |
| 2026-05-07 07:01 | 24.65179 | 102.17140 | 36929 ft | 534 kts | 87° |
| 2026-05-07 07:01 | 24.66619 | 102.50142 | 36947 ft | 533 kts | 88° |
| 2026-05-07 07:02 | 24.66748 | 102.82992 | 36933 ft | 528 kts | 103° |
| 2026-05-07 07:02 | 24.62170 | 102.98418 | 36937 ft | 524 kts | 114° |
| 2026-05-07 07:02 | 24.57229 | 103.13633 | 36930 ft | 526 kts | 107° |
| 2026-05-07 07:03 | 24.54989 | 103.29595 | 36933 ft | 529 kts | 92° |
| 2026-05-07 07:03 | 24.54759 | 103.45672 | 36943 ft | 529 kts | 92° |
| 2026-05-07 07:03 | 24.53378 | 103.78001 | 36966 ft | 523 kts | 102° |
| 2026-05-07 07:04 | 24.46621 | 104.09794 | 36989 ft | 526 kts | 105° |
| 2026-05-07 07:04 | 24.39847 | 104.41226 | 36969 ft | 526 kts | 105° |
| 2026-05-07 07:05 | 24.32990 | 104.72715 | 36959 ft | 527 kts | 105° |
| 2026-05-07 07:05 | 24.26079 | 105.04099 | 36975 ft | 526 kts | 105° |
| 2026-05-07 07:06 | 24.18912 | 105.35265 | 36975 ft | 526 kts | 107° |
| 2026-05-07 07:06 | 24.11254 | 105.66659 | 36952 ft | 526 kts | 107° |
| 2026-05-07 07:07 | 24.04844 | 105.98167 | 36939 ft | 528 kts | 104° |
| 2026-05-07 07:07 | 23.98457 | 106.30024 | 36902 ft | 528 kts | 104° |
| 2026-05-07 07:08 | 23.92288 | 106.61827 | 36899 ft | 527 kts | 98° |
| 2026-05-07 07:08 | 23.90098 | 106.94042 | 36905 ft | 527 kts | 95° |
| 2026-05-07 07:09 | 23.87876 | 107.26414 | 36904 ft | 525 kts | 95° |
| 2026-05-07 07:09 | 23.85560 | 107.59149 | 36907 ft | 524 kts | 95° |
| 2026-05-07 07:10 | 23.83314 | 107.91373 | 36907 ft | 524 kts | 93° |
| 2026-05-07 07:10 | 23.81696 | 108.23550 | 36912 ft | 524 kts | 94° |
| 2026-05-07 07:11 | 23.79825 | 108.56437 | 36916 ft | 523 kts | 94° |
| 2026-05-07 07:11 | 23.77518 | 108.95493 | 36905 ft | 520 kts | 94° |
| 2026-05-07 07:12 | 23.71330 | 109.39588 | 36900 ft | 517 kts | 103° |
| 2026-05-07 07:12 | 23.63830 | 109.76327 | 36903 ft | 516 kts | 103° |
| 2026-05-07 07:13 | 23.56151 | 110.13258 | 36911 ft | 515 kts | 103° |
| 2026-05-07 07:13 | 23.47295 | 110.56056 | 36893 ft | 516 kts | 103° |
| 2026-05-07 07:14 | 23.37639 | 111.02267 | 36893 ft | 517 kts | 103° |
| 2026-05-07 07:14 | 23.27134 | 111.53002 | 36890 ft | 520 kts | 103° |
| 2026-05-07 07:15 | 23.17306 | 111.99707 | 36893 ft | 522 kts | 103° |
| 2026-05-07 07:15 | 23.09546 | 112.36701 | 36882 ft | 523 kts | 103° |